sensor_id;sensor_type;location;lat;lon;timestamp;pressure;altitude;pressure_sealevel;temperature;humidity
21357;BME280;10836;53.068;18.234;2023-11-22T00:01:06;102014.91;;;-4.58;100.00
21357;BME280;10836;53.068;18.234;2023-11-22T00:03:36;102024.88;;;-4.50;100.00
21357;BME280;10836;53.068;18.234;2023-11-22T00:06:03;102019.13;;;-4.55;100.00
21357;BME280;10836;53.068;18.234;2023-11-22T00:08:30;102015.47;;;-4.54;100.00
21357;BME280;10836;53.068;18.234;2023-11-22T00:10:57;102007.91;;;-4.59;100.00
21357;BME280;10836;53.068;18.234;2023-11-22T00:13:24;102002.72;;;-4.70;100.00
21357;BME280;10836;53.068;18.234;2023-11-22T00:15:51;102004.81;;;-4.64;100.00
21357;BME280;10836;53.068;18.234;2023-11-22T00:18:18;102002.84;;;-4.72;100.00
21357;BME280;10836;53.068;18.234;2023-11-22T00:20:45;101999.50;;;-4.74;100.00
21357;BME280;10836;53.068;18.234;2023-11-22T00:23:15;102000.78;;;-4.78;100.00
21357;BME280;10836;53.068;18.234;2023-11-22T00:25:42;102006.13;;;-4.78;100.00
21357;BME280;10836;53.068;18.234;2023-11-22T00:28:09;102009.44;;;-4.76;100.00
21357;BME280;10836;53.068;18.234;2023-11-22T00:30:37;102011.72;;;-4.81;100.00
21357;BME280;10836;53.068;18.234;2023-11-22T00:33:04;102010.75;;;-4.80;100.00
21357;BME280;10836;53.068;18.234;2023-11-22T00:35:31;102010.19;;;-4.83;100.00
21357;BME280;10836;53.068;18.234;2023-11-22T00:37:58;102013.00;;;-4.85;100.00
21357;BME280;10836;53.068;18.234;2023-11-22T00:40:26;102009.63;;;-4.87;100.00
21357;BME280;10836;53.068;18.234;2023-11-22T00:42:53;102013.56;;;-4.91;100.00
21357;BME280;10836;53.068;18.234;2023-11-22T00:45:20;102025.47;;;-4.95;100.00
21357;BME280;10836;53.068;18.234;2023-11-22T00:47:47;102029.81;;;-4.94;100.00
21357;BME280;10836;53.068;18.234;2023-11-22T00:50:15;102046.91;;;-4.96;100.00
21357;BME280;10836;53.068;18.234;2023-11-22T00:52:49;102043.69;;;-5.00;100.00
21357;BME280;10836;53.068;18.234;2023-11-22T00:55:16;102056.41;;;-5.13;100.00
21357;BME280;10836;53.068;18.234;2023-11-22T00:57:43;102051.66;;;-5.10;100.00
21357;BME280;10836;53.068;18.234;2023-11-22T01:00:11;102052.09;;;-5.05;100.00
21357;BME280;10836;53.068;18.234;2023-11-22T01:02:39;102054.31;;;-5.10;100.00
21357;BME280;10836;53.068;18.234;2023-11-22T01:05:07;102049.41;;;-5.14;100.00
21357;BME280;10836;53.068;18.234;2023-11-22T01:07:38;102037.09;;;-5.25;100.00
21357;BME280;10836;53.068;18.234;2023-11-22T01:10:07;102049.41;;;-5.14;100.00
21357;BME280;10836;53.068;18.234;2023-11-22T01:12:34;102059.50;;;-5.08;100.00
21357;BME280;10836;53.068;18.234;2023-11-22T01:15:02;102064.13;;;-5.10;100.00
21357;BME280;10836;53.068;18.234;2023-11-22T01:17:29;102066.25;;;-5.23;100.00
21357;BME280;10836;53.068;18.234;2023-11-22T01:20:01;102066.50;;;-5.26;100.00
21357;BME280;10836;53.068;18.234;2023-11-22T01:22:30;102067.63;;;-5.19;100.00
21357;BME280;10836;53.068;18.234;2023-11-22T01:24:58;102068.06;;;-5.14;100.00
21357;BME280;10836;53.068;18.234;2023-11-22T01:27:25;102065.13;;;-5.11;100.00
21357;BME280;10836;53.068;18.234;2023-11-22T01:29:52;102068.78;;;-5.22;100.00
21357;BME280;10836;53.068;18.234;2023-11-22T01:32:21;102058.25;;;-5.23;100.00
21357;BME280;10836;53.068;18.234;2023-11-22T01:34:48;102065.13;;;-5.21;100.00
21357;BME280;10836;53.068;18.234;2023-11-22T01:37:15;102070.44;;;-5.30;100.00
21357;BME280;10836;53.068;18.234;2023-11-22T01:39:42;102073.38;;;-5.33;100.00
21357;BME280;10836;53.068;18.234;2023-11-22T01:42:09;102059.88;;;-5.42;100.00
21357;BME280;10836;53.068;18.234;2023-11-22T01:44:37;102057.75;;;-5.48;100.00
21357;BME280;10836;53.068;18.234;2023-11-22T01:47:04;102069.53;;;-5.50;100.00
21357;BME280;10836;53.068;18.234;2023-11-22T01:49:32;102072.31;;;-5.52;100.00
21357;BME280;10836;53.068;18.234;2023-11-22T01:51:59;102070.09;;;-5.47;100.00
21357;BME280;10836;53.068;18.234;2023-11-22T01:54:28;102074.81;;;-5.60;100.00
21357;BME280;10836;53.068;18.234;2023-11-22T01:56:55;102073.41;;;-5.64;100.00
21357;BME280;10836;53.068;18.234;2023-11-22T01:59:23;102092.13;;;-5.75;100.00
21357;BME280;10836;53.068;18.234;2023-11-22T02:01:50;102093.13;;;-5.76;100.00
21357;BME280;10836;53.068;18.234;2023-11-22T02:04:17;102102.50;;;-5.72;100.00
21357;BME280;10836;53.068;18.234;2023-11-22T02:06:45;102109.78;;;-5.74;100.00
21357;BME280;10836;53.068;18.234;2023-11-22T02:09:12;102114.47;;;-5.87;100.00
21357;BME280;10836;53.068;18.234;2023-11-22T02:11:42;102113.06;;;-5.91;100.00
21357;BME280;10836;53.068;18.234;2023-11-22T02:14:09;102115.91;;;-5.83;100.00
21357;BME280;10836;53.068;18.234;2023-11-22T02:16:36;102119.00;;;-5.78;100.00
21357;BME280;10836;53.068;18.234;2023-11-22T02:19:06;102125.13;;;-5.87;100.00
21357;BME280;10836;53.068;18.234;2023-11-22T02:21:33;102122.41;;;-6.07;100.00
21357;BME280;10836;53.068;18.234;2023-11-22T02:24:01;102126.72;;;-6.06;100.00
21357;BME280;10836;53.068;18.234;2023-11-22T02:26:28;102118.72;;;-6.06;100.00
21357;BME280;10836;53.068;18.234;2023-11-22T02:28:56;102124.06;;;-6.26;100.00
21357;BME280;10836;53.068;18.234;2023-11-22T02:31:23;102115.84;;;-6.23;100.00
21357;BME280;10836;53.068;18.234;2023-11-22T02:33:50;102123.47;;;-6.30;100.00
21357;BME280;10836;53.068;18.234;2023-11-22T02:36:18;102138.50;;;-6.40;100.00
21357;BME280;10836;53.068;18.234;2023-11-22T02:38:45;102144.34;;;-6.46;100.00
21357;BME280;10836;53.068;18.234;2023-11-22T02:41:13;102139.72;;;-6.44;100.00
21357;BME280;10836;53.068;18.234;2023-11-22T02:43:41;102138.13;;;-6.35;100.00
21357;BME280;10836;53.068;18.234;2023-11-22T02:46:08;102131.63;;;-6.43;100.00
21357;BME280;10836;53.068;18.234;2023-11-22T02:48:35;102136.91;;;-6.52;100.00
21357;BME280;10836;53.068;18.234;2023-11-22T02:51:03;102147.81;;;-6.66;100.00
21357;BME280;10836;53.068;18.234;2023-11-22T02:53:30;102156.75;;;-6.67;100.00
21357;BME280;10836;53.068;18.234;2023-11-22T02:55:59;102158.44;;;-6.66;100.00
21357;BME280;10836;53.068;18.234;2023-11-22T02:58:29;102164.00;;;-6.69;100.00
21357;BME280;10836;53.068;18.234;2023-11-22T03:00:56;102153.38;;;-6.69;100.00
21357;BME280;10836;53.068;18.234;2023-11-22T03:03:24;102171.00;;;-6.68;100.00
21357;BME280;10836;53.068;18.234;2023-11-22T03:05:51;102168.38;;;-6.80;100.00
21357;BME280;10836;53.068;18.234;2023-11-22T03:08:18;102176.06;;;-6.65;100.00
21357;BME280;10836;53.068;18.234;2023-11-22T03:10:45;102190.81;;;-6.73;100.00
21357;BME280;10836;53.068;18.234;2023-11-22T03:13:13;102185.75;;;-6.76;100.00
21357;BME280;10836;53.068;18.234;2023-11-22T03:15:39;102192.75;;;-6.75;100.00
21357;BME280;10836;53.068;18.234;2023-11-22T03:18:07;102192.50;;;-6.72;100.00
21357;BME280;10836;53.068;18.234;2023-11-22T03:20:34;102197.22;;;-6.75;100.00
21357;BME280;10836;53.068;18.234;2023-11-22T03:23:01;102191.03;;;-6.64;100.00
21357;BME280;10836;53.068;18.234;2023-11-22T03:25:28;102184.16;;;-6.67;100.00
21357;BME280;10836;53.068;18.234;2023-11-22T03:27:56;102178.41;;;-6.83;100.00
21357;BME280;10836;53.068;18.234;2023-11-22T03:30:23;102181.28;;;-6.75;100.00
21357;BME280;10836;53.068;18.234;2023-11-22T03:32:50;102172.84;;;-6.80;100.00
21357;BME280;10836;53.068;18.234;2023-11-22T03:35:17;102183.56;;;-6.71;100.00
21357;BME280;10836;53.068;18.234;2023-11-22T03:37:44;102187.69;;;-6.78;100.00
21357;BME280;10836;53.068;18.234;2023-11-22T03:40:11;102190.81;;;-6.73;100.00
21357;BME280;10836;53.068;18.234;2023-11-22T03:42:41;102187.22;;;-6.83;100.00
21357;BME280;10836;53.068;18.234;2023-11-22T03:45:08;102183.00;;;-6.85;100.00
21357;BME280;10836;53.068;18.234;2023-11-22T03:47:35;102187.94;;;-6.81;100.00
21357;BME280;10836;53.068;18.234;2023-11-22T03:50:06;102183.06;;;-6.64;100.00
21357;BME280;10836;53.068;18.234;2023-11-22T03:52:33;102177.25;;;-6.58;100.00
21357;BME280;10836;53.068;18.234;2023-11-22T03:55:00;102187.44;;;-6.75;100.00
21357;BME280;10836;53.068;18.234;2023-11-22T03:57:27;102195.78;;;-6.79;100.00
21357;BME280;10836;53.068;18.234;2023-11-22T03:59:54;102181.38;;;-6.65;100.00
21357;BME280;10836;53.068;18.234;2023-11-22T04:02:21;102183.81;;;-6.74;100.00
21357;BME280;10836;53.068;18.234;2023-11-22T04:04:48;102177.69;;;-6.85;100.00
21357;BME280;10836;53.068;18.234;2023-11-22T04:07:15;102188.69;;;-6.90;100.00
21357;BME280;10836;53.068;18.234;2023-11-22T04:09:42;102190.38;;;-6.89;100.00
21357;BME280;10836;53.068;18.234;2023-11-22T04:12:09;102175.19;;;-6.98;100.00
21357;BME280;10836;53.068;18.234;2023-11-22T04:14:36;102171.34;;;-6.94;100.00
21357;BME280;10836;53.068;18.234;2023-11-22T04:17:04;102185.09;;;-7.11;100.00
21357;BME280;10836;53.068;18.234;2023-11-22T04:19:31;102208.28;;;-7.13;100.00
21357;BME280;10836;53.068;18.234;2023-11-22T04:21:58;102213.81;;;-7.16;100.00
21357;BME280;10836;53.068;18.234;2023-11-22T04:24:25;102236.75;;;-7.15;100.00
21357;BME280;10836;53.068;18.234;2023-11-22T04:26:53;102245.06;;;-7.20;100.00
21357;BME280;10836;53.068;18.234;2023-11-22T04:29:20;102237.72;;;-7.27;100.00
21357;BME280;10836;53.068;18.234;2023-11-22T04:31:47;102239.03;;;-7.11;100.00
21357;BME280;10836;53.068;18.234;2023-11-22T04:34:14;102235.53;;;-7.11;100.00
21357;BME280;10836;53.068;18.234;2023-11-22T04:36:41;102241.09;;;-7.48;100.00
21357;BME280;10836;53.068;18.234;2023-11-22T04:39:08;102255.31;;;-7.26;100.00
21357;BME280;10836;53.068;18.234;2023-11-22T04:41:36;102239.03;;;-7.22;100.00
21357;BME280;10836;53.068;18.234;2023-11-22T04:44:04;102250.72;;;-7.35;100.00
21357;BME280;10836;53.068;18.234;2023-11-22T04:46:31;102260.63;;;-7.49;100.00
21357;BME280;10836;53.068;18.234;2023-11-22T04:48:58;102254.69;;;-7.63;100.00
21357;BME280;10836;53.068;18.234;2023-11-22T04:51:25;102256.41;;;-7.51;100.00
21357;BME280;10836;53.068;18.234;2023-11-22T04:53:53;102259.41;;;-7.56;100.00
21357;BME280;10836;53.068;18.234;2023-11-22T04:56:20;102264.94;;;-7.59;100.00
21357;BME280;10836;53.068;18.234;2023-11-22T04:58:47;102259.16;;;-7.53;100.00
21357;BME280;10836;53.068;18.234;2023-11-22T05:01:14;102258.47;;;-7.44;100.00
21357;BME280;10836;53.068;18.234;2023-11-22T05:03:45;102264.69;;;-7.56;100.00
21357;BME280;10836;53.068;18.234;2023-11-22T05:06:13;102275.66;;;-7.60;100.00
21357;BME280;10836;53.068;18.234;2023-11-22T05:08:40;102287.84;;;-7.58;100.00
21357;BME280;10836;53.068;18.234;2023-11-22T05:11:07;102285.66;;;-7.64;100.00
21357;BME280;10836;53.068;18.234;2023-11-22T05:13:35;102284.31;;;-7.69;100.00
21357;BME280;10836;53.068;18.234;2023-11-22T05:16:02;102287.09;;;-7.71;100.00
21357;BME280;10836;53.068;18.234;2023-11-22T05:18:30;102297.91;;;-7.74;100.00
21357;BME280;10836;53.068;18.234;2023-11-22T05:20:57;102299.16;;;-7.67;100.00
21357;BME280;10836;53.068;18.234;2023-11-22T05:23:24;102307.22;;;-7.68;100.00
21357;BME280;10836;53.068;18.234;2023-11-22T05:25:51;102299.16;;;-7.67;100.00
21357;BME280;10836;53.068;18.234;2023-11-22T05:28:18;102314.56;;;-7.83;100.00
21357;BME280;10836;53.068;18.234;2023-11-22T05:30:45;102309.25;;;-7.72;100.00
21357;BME280;10836;53.068;18.234;2023-11-22T05:33:12;102319.13;;;-7.74;100.00
21357;BME280;10836;53.068;18.234;2023-11-22T05:35:39;102333.34;;;-7.75;100.00
21357;BME280;10836;53.068;18.234;2023-11-22T05:38:08;102328.25;;;-7.89;100.00
21357;BME280;10836;53.068;18.234;2023-11-22T05:40:36;102329.00;;;-7.76;100.00
21357;BME280;10836;53.068;18.234;2023-11-22T05:43:03;102320.47;;;-7.80;100.00
21357;BME280;10836;53.068;18.234;2023-11-22T05:45:30;102310.00;;;-7.70;100.00
21357;BME280;10836;53.068;18.234;2023-11-22T05:47:57;102315.53;;;-7.73;100.00
21357;BME280;10836;53.068;18.234;2023-11-22T05:50:24;102326.28;;;-7.63;100.00
21357;BME280;10836;53.068;18.234;2023-11-22T05:52:51;102322.56;;;-7.61;100.00
21357;BME280;10836;53.068;18.234;2023-11-22T05:55:18;102314.44;;;-7.71;100.00
21357;BME280;10836;53.068;18.234;2023-11-22T05:57:45;102315.81;;;-7.65;100.00
21357;BME280;10836;53.068;18.234;2023-11-22T06:00:12;102324.22;;;-7.71;100.00
21357;BME280;10836;53.068;18.234;2023-11-22T06:02:41;102322.72;;;-7.51;100.00
21357;BME280;10836;53.068;18.234;2023-11-22T06:05:08;102319.69;;;-7.58;100.00
21357;BME280;10836;53.068;18.234;2023-11-22T06:07:36;102318.75;;;-7.46;100.00
21357;BME280;10836;53.068;18.234;2023-11-22T06:10:04;102323.47;;;-7.27;100.00
21357;BME280;10836;53.068;18.234;2023-11-22T06:12:31;102335.44;;;-7.21;100.00
21357;BME280;10836;53.068;18.234;2023-11-22T06:14:58;102338.53;;;-7.50;100.00
21357;BME280;10836;53.068;18.234;2023-11-22T06:17:24;102324.47;;;-7.17;100.00
21357;BME280;10836;53.068;18.234;2023-11-22T06:19:52;102337.84;;;-7.18;100.00
21357;BME280;10836;53.068;18.234;2023-11-22T06:22:18;102343.28;;;-7.20;100.00
21357;BME280;10836;53.068;18.234;2023-11-22T06:24:46;102347.66;;;-6.96;100.00
21357;BME280;10836;53.068;18.234;2023-11-22T06:27:14;102343.44;;;-6.99;100.00
21357;BME280;10836;53.068;18.234;2023-11-22T06:29:44;102352.94;;;-7.19;100.00
21357;BME280;10836;53.068;18.234;2023-11-22T06:32:11;102370.66;;;-7.19;100.00
21357;BME280;10836;53.068;18.234;2023-11-22T06:34:39;102374.69;;;-7.02;100.00
21357;BME280;10836;53.068;18.234;2023-11-22T06:37:06;102380.38;;;-6.85;100.00
21357;BME280;10836;53.068;18.234;2023-11-22T06:39:35;102364.34;;;-6.61;100.00
21357;BME280;10836;53.068;18.234;2023-11-22T06:42:03;102359.38;;;-6.54;100.00
21357;BME280;10836;53.068;18.234;2023-11-22T06:44:30;102365.19;;;-6.60;100.00
21357;BME280;10836;53.068;18.234;2023-11-22T06:46:57;102365.53;;;-6.54;100.00
21357;BME280;10836;53.068;18.234;2023-11-22T06:49:24;102358.06;;;-6.60;100.00
21357;BME280;10836;53.068;18.234;2023-11-22T06:51:51;102365.84;;;-6.25;100.00
21357;BME280;10836;53.068;18.234;2023-11-22T06:54:21;102365.13;;;-6.16;100.00
21357;BME280;10836;53.068;18.234;2023-11-22T06:56:48;102369.47;;;-6.26;100.00
21357;BME280;10836;53.068;18.234;2023-11-22T06:59:15;102376.75;;;-6.28;100.00
21357;BME280;10836;53.068;18.234;2023-11-22T07:01:42;102385.44;;;-6.15;100.00
21357;BME280;10836;53.068;18.234;2023-11-22T07:04:09;102396.72;;;-5.90;100.00
21357;BME280;10836;53.068;18.234;2023-11-22T07:06:37;102400.53;;;-5.83;100.00
21357;BME280;10836;53.068;18.234;2023-11-22T07:09:05;102398.31;;;-5.67;100.00
21357;BME280;10836;53.068;18.234;2023-11-22T07:11:32;102412.16;;;-5.84;100.00
21357;BME280;10836;53.068;18.234;2023-11-22T07:13:59;102405.63;;;-5.80;100.00
21357;BME280;10836;53.068;18.234;2023-11-22T07:16:26;102401.16;;;-5.59;100.00
21357;BME280;10836;53.068;18.234;2023-11-22T07:18:53;102408.66;;;-5.53;100.00
21357;BME280;10836;53.068;18.234;2023-11-22T07:21:20;102421.63;;;-5.27;100.00
21357;BME280;10836;53.068;18.234;2023-11-22T07:23:50;102424.63;;;-5.00;100.00
21357;BME280;10836;53.068;18.234;2023-11-22T07:26:19;102427.91;;;-5.08;100.00
21357;BME280;10836;53.068;18.234;2023-11-22T07:28:47;102433.84;;;-4.83;100.00
21357;BME280;10836;53.068;18.234;2023-11-22T07:31:14;102425.78;;;-4.93;100.00
21357;BME280;10836;53.068;18.234;2023-11-22T07:33:41;102422.59;;;-5.08;100.00
21357;BME280;10836;53.068;18.234;2023-11-22T07:36:09;102429.53;;;-5.16;100.00
21357;BME280;10836;53.068;18.234;2023-11-22T07:38:36;102432.09;;;-4.94;100.00
21357;BME280;10836;53.068;18.234;2023-11-22T07:41:05;102436.59;;;-4.64;100.00
21357;BME280;10836;53.068;18.234;2023-11-22T07:43:34;102440.88;;;-4.52;100.00
21357;BME280;10836;53.068;18.234;2023-11-22T07:46:08;102446.34;;;-4.23;100.00
21357;BME280;10836;53.068;18.234;2023-11-22T07:48:41;102440.50;;;-3.48;100.00
21357;BME280;10836;53.068;18.234;2023-11-22T07:51:08;102438.50;;;-2.51;100.00
21357;BME280;10836;53.068;18.234;2023-11-22T07:53:36;102445.25;;;-1.37;100.00
21357;BME280;10836;53.068;18.234;2023-11-22T07:56:03;102436.75;;;0.39;100.00
21357;BME280;10836;53.068;18.234;2023-11-22T07:58:31;102449.50;;;1.67;99.06
21357;BME280;10836;53.068;18.234;2023-11-22T08:00:58;102472.19;;;2.20;87.16
21357;BME280;10836;53.068;18.234;2023-11-22T08:03:27;102471.00;;;4.18;80.74
21357;BME280;10836;53.068;18.234;2023-11-22T08:05:54;102468.28;;;5.67;70.28
21357;BME280;10836;53.068;18.234;2023-11-22T08:08:23;102448.28;;;6.51;60.58
21357;BME280;10836;53.068;18.234;2023-11-22T08:10:50;102448.84;;;7.14;59.73
21357;BME280;10836;53.068;18.234;2023-11-22T08:13:21;102441.69;;;6.80;56.41
21357;BME280;10836;53.068;18.234;2023-11-22T08:15:50;102426.56;;;7.89;53.72
21357;BME280;10836;53.068;18.234;2023-11-22T08:18:18;102410.47;;;7.81;51.03
21357;BME280;10836;53.068;18.234;2023-11-22T08:20:45;102399.53;;;7.23;52.10
21357;BME280;10836;53.068;18.234;2023-11-22T08:23:12;102409.56;;;7.29;53.14
21357;BME280;10836;53.068;18.234;2023-11-22T08:25:41;102421.63;;;7.73;51.82
21357;BME280;10836;53.068;18.234;2023-11-22T08:28:11;102419.81;;;8.88;47.07
21357;BME280;10836;53.068;18.234;2023-11-22T08:30:38;102426.63;;;7.76;49.92
21357;BME280;10836;53.068;18.234;2023-11-22T08:33:08;102416.69;;;9.59;45.74
21357;BME280;10836;53.068;18.234;2023-11-22T08:35:34;102409.44;;;6.37;53.37
21357;BME280;10836;53.068;18.234;2023-11-22T08:38:02;102409.94;;;7.40;49.88
21357;BME280;10836;53.068;18.234;2023-11-22T08:40:30;102409.09;;;7.39;49.99
21357;BME280;10836;53.068;18.234;2023-11-22T08:42:57;102409.50;;;7.56;49.76
21357;BME280;10836;53.068;18.234;2023-11-22T08:45:24;102418.59;;;8.01;49.37
21357;BME280;10836;53.068;18.234;2023-11-22T08:47:51;102415.25;;;5.52;54.13
21357;BME280;10836;53.068;18.234;2023-11-22T08:50:18;102413.31;;;7.02;53.36
21357;BME280;10836;53.068;18.234;2023-11-22T08:52:46;102412.25;;;8.20;48.19
21357;BME280;10836;53.068;18.234;2023-11-22T08:55:13;102417.47;;;7.38;45.92
21357;BME280;10836;53.068;18.234;2023-11-22T08:58:07;102435.25;;;7.07;47.50
21357;BME280;10836;53.068;18.234;2023-11-22T09:00:34;102446.69;;;6.70;50.83
21357;BME280;10836;53.068;18.234;2023-11-22T09:03:02;102423.72;;;7.64;47.08
21357;BME280;10836;53.068;18.234;2023-11-22T09:05:32;102424.22;;;8.57;43.83
21357;BME280;10836;53.068;18.234;2023-11-22T09:07:59;102425.69;;;8.09;45.16
21357;BME280;10836;53.068;18.234;2023-11-22T09:10:37;102429.81;;;7.33;43.13
21357;BME280;10836;53.068;18.234;2023-11-22T09:13:30;102430.25;;;8.15;45.54
21357;BME280;10836;53.068;18.234;2023-11-22T09:15:57;102420.88;;;9.12;44.06
21357;BME280;10836;53.068;18.234;2023-11-22T09:18:24;102419.88;;;8.81;42.78
21357;BME280;10836;53.068;18.234;2023-11-22T09:21:16;102414.97;;;7.16;44.07
21357;BME280;10836;53.068;18.234;2023-11-22T09:23:44;102402.59;;;9.44;41.50
21357;BME280;10836;53.068;18.234;2023-11-22T09:26:11;102417.50;;;9.16;41.40
21357;BME280;10836;53.068;18.234;2023-11-22T09:28:39;102419.44;;;7.95;44.03
21357;BME280;10836;53.068;18.234;2023-11-22T09:31:32;102406.69;;;7.95;44.84
21357;BME280;10836;53.068;18.234;2023-11-22T09:33:59;102399.91;;;6.94;45.57
21357;BME280;10836;53.068;18.234;2023-11-22T09:36:27;102412.09;;;6.24;50.28
21357;BME280;10836;53.068;18.234;2023-11-22T09:39:09;102411.22;;;6.91;47.99
21357;BME280;10836;53.068;18.234;2023-11-22T09:41:36;102414.56;;;7.13;47.26
21357;BME280;10836;53.068;18.234;2023-11-22T09:44:04;102416.41;;;6.66;46.40
21357;BME280;10836;53.068;18.234;2023-11-22T09:46:32;102412.22;;;4.84;51.22
21357;BME280;10836;53.068;18.234;2023-11-22T09:49:19;102409.56;;;5.40;52.49
21357;BME280;10836;53.068;18.234;2023-11-22T09:51:51;102410.91;;;5.29;53.27
21357;BME280;10836;53.068;18.234;2023-11-22T09:54:20;102423.69;;;5.70;51.00
21357;BME280;10836;53.068;18.234;2023-11-22T09:56:51;102415.75;;;5.34;51.58
21357;BME280;10836;53.068;18.234;2023-11-22T09:59:38;102406.56;;;4.22;58.21
21357;BME280;10836;53.068;18.234;2023-11-22T10:02:06;102407.66;;;4.63;56.67
21357;BME280;10836;53.068;18.234;2023-11-22T10:04:34;102412.94;;;2.88;63.49
21357;BME280;10836;53.068;18.234;2023-11-22T10:07:19;102405.53;;;3.43;60.40
21357;BME280;10836;53.068;18.234;2023-11-22T10:09:47;102410.66;;;3.15;62.20
21357;BME280;10836;53.068;18.234;2023-11-22T10:12:19;102411.09;;;3.04;62.30
21357;BME280;10836;53.068;18.234;2023-11-22T10:14:47;102410.72;;;3.59;60.13
21357;BME280;10836;53.068;18.234;2023-11-22T10:17:39;102409.78;;;3.52;61.62
21357;BME280;10836;53.068;18.234;2023-11-22T10:20:07;102403.50;;;4.46;59.41
21357;BME280;10836;53.068;18.234;2023-11-22T10:22:44;102409.56;;;5.12;54.44
21357;BME280;10836;53.068;18.234;2023-11-22T10:25:12;102413.03;;;5.96;52.15
21357;BME280;10836;53.068;18.234;2023-11-22T10:27:39;102411.66;;;6.14;51.70
21357;BME280;10836;53.068;18.234;2023-11-22T10:30:33;102414.06;;;5.05;54.03
21357;BME280;10836;53.068;18.234;2023-11-22T10:33:02;102410.44;;;5.19;52.38
21357;BME280;10836;53.068;18.234;2023-11-22T10:35:30;102414.91;;;5.06;53.89
21357;BME280;10836;53.068;18.234;2023-11-22T10:38:08;102409.81;;;4.96;52.52
21357;BME280;10836;53.068;18.234;2023-11-22T10:40:37;102396.88;;;4.91;52.63
21357;BME280;10836;53.068;18.234;2023-11-22T10:43:06;102395.31;;;3.00;58.11
21357;BME280;10836;53.068;18.234;2023-11-22T11:06:36;102382.59;;;5.94;48.27
21357;BME280;10836;53.068;18.234;2023-11-22T11:09:28;102390.16;;;6.06;48.73
21357;BME280;10836;53.068;18.234;2023-11-22T11:11:59;102374.00;;;6.58;49.63
21357;BME280;10836;53.068;18.234;2023-11-22T11:14:32;102362.75;;;7.01;44.37
21357;BME280;10836;53.068;18.234;2023-11-22T11:17:25;102368.88;;;6.16;46.33
21357;BME280;10836;53.068;18.234;2023-11-22T11:19:52;102364.06;;;5.70;46.50
21357;BME280;10836;53.068;18.234;2023-11-22T11:22:21;102352.53;;;5.20;47.98
21357;BME280;10836;53.068;18.234;2023-11-22T11:25:04;102355.50;;;6.08;46.93
21357;BME280;10836;53.068;18.234;2023-11-22T11:27:35;102363.19;;;5.56;46.96
21357;BME280;10836;53.068;18.234;2023-11-22T11:33:12;102375.81;;;4.65;49.88
21357;BME280;10836;53.068;18.234;2023-11-22T11:35:50;102377.47;;;4.24;53.15
21357;BME280;10836;53.068;18.234;2023-11-22T11:38:42;102366.47;;;3.75;54.82
21357;BME280;10836;53.068;18.234;2023-11-22T11:41:10;102378.78;;;3.62;58.32
21357;BME280;10836;53.068;18.234;2023-11-22T11:43:45;102372.53;;;3.47;62.11
21357;BME280;10836;53.068;18.234;2023-11-22T11:46:38;102367.97;;;2.81;59.07
21357;BME280;10836;53.068;18.234;2023-11-22T11:49:11;102382.34;;;2.58;58.54
21357;BME280;10836;53.068;18.234;2023-11-22T11:51:41;102368.31;;;1.78;63.22
21357;BME280;10836;53.068;18.234;2023-11-22T11:54:35;102370.03;;;1.71;66.33
21357;BME280;10836;53.068;18.234;2023-11-22T11:57:30;102368.63;;;1.83;66.04
21357;BME280;10836;53.068;18.234;2023-11-22T11:59:57;102358.06;;;1.74;69.41
21357;BME280;10836;53.068;18.234;2023-11-22T13:08:22;102320.59;;;1.17;75.66
21357;BME280;10836;53.068;18.234;2023-11-22T13:10:52;102301.09;;;1.07;74.89
21357;BME280;10836;53.068;18.234;2023-11-22T13:13:24;102297.47;;;0.75;77.40
21357;BME280;10836;53.068;18.234;2023-11-22T13:16:19;102290.75;;;0.55;78.65
21357;BME280;10836;53.068;18.234;2023-11-22T13:18:46;102284.25;;;0.41;78.52
21357;BME280;10836;53.068;18.234;2023-11-22T13:21:15;102281.03;;;0.29;80.80
21357;BME280;10836;53.068;18.234;2023-11-22T13:23:42;102272.47;;;0.26;82.65
21357;BME280;10836;53.068;18.234;2023-11-22T13:26:34;102282.69;;;0.14;84.43
21357;BME280;10836;53.068;18.234;2023-11-22T13:29:02;102281.69;;;0.07;86.43
21357;BME280;10836;53.068;18.234;2023-11-22T13:31:29;102283.19;;;0.02;87.78
21357;BME280;10836;53.068;18.234;2023-11-22T13:34:21;102286.22;;;-0.02;88.82
21357;BME280;10836;53.068;18.234;2023-11-22T13:36:48;102286.19;;;-0.10;89.60
21357;BME280;10836;53.068;18.234;2023-11-22T13:39:15;102278.81;;;-0.08;91.77
21357;BME280;10836;53.068;18.234;2023-11-22T13:41:43;102277.81;;;-0.15;92.03
21357;BME280;10836;53.068;18.234;2023-11-22T13:44:21;102276.78;;;-0.22;94.06
21357;BME280;10836;53.068;18.234;2023-11-22T13:46:48;102288.22;;;-0.12;93.96
21357;BME280;10836;53.068;18.234;2023-11-22T13:49:15;102306.66;;;-0.17;93.71
21357;BME280;10836;53.068;18.234;2023-11-22T13:51:43;102314.38;;;-0.14;94.96
21357;BME280;10836;53.068;18.234;2023-11-22T13:54:09;102306.97;;;-0.20;93.83
21357;BME280;10836;53.068;18.234;2023-11-22T13:56:56;102310.34;;;-0.18;94.29
21357;BME280;10836;53.068;18.234;2023-11-22T13:59:23;102313.06;;;-0.10;95.37
21357;BME280;10836;53.068;18.234;2023-11-22T14:01:50;102302.28;;;-0.18;93.38
21357;BME280;10836;53.068;18.234;2023-11-22T14:04:23;102306.47;;;-0.23;93.73
21357;BME280;10836;53.068;18.234;2023-11-22T14:07:04;102313.00;;;-0.26;95.75
21357;BME280;10836;53.068;18.234;2023-11-22T14:09:31;102304.31;;;-0.12;96.17
21357;BME280;10836;53.068;18.234;2023-11-22T14:12:23;102302.31;;;-0.10;94.76
21357;BME280;10836;53.068;18.234;2023-11-22T14:14:50;102295.63;;;-0.06;96.50
21357;BME280;10836;53.068;18.234;2023-11-22T14:17:18;102300.97;;;0.03;95.70
21357;BME280;10836;53.068;18.234;2023-11-22T14:20:12;102287.88;;;-0.09;95.30